createdAt,value
2019-05-16T00:00:23.060Z,30.60
2019-05-16T00:02:52.310Z,26.67
2019-05-16T00:05:21.636Z,41.47
2019-05-16T00:07:50.897Z,39.93
2019-05-16T00:10:20.210Z,44.60
2019-05-16T00:12:49.448Z,23.77
2019-05-16T00:15:18.780Z,26.00
2019-05-16T00:17:48.867Z,34.03
2019-05-16T00:20:19.038Z,46.13
2019-05-16T00:22:48.672Z,140.63
2019-05-16T00:25:18.102Z,97.10
2019-05-16T00:27:47.991Z,38.93
2019-05-16T00:30:18.140Z,24.73
2019-05-16T00:32:48.131Z,25.40
2019-05-16T00:35:18.186Z,58.73
2019-05-16T00:37:48.412Z,72.53
2019-05-16T00:40:18.794Z,128.60
2019-05-16T00:42:49.171Z,96.07
2019-05-16T00:45:18.846Z,50.17
2019-05-16T00:47:48.273Z,40.53
2019-05-16T00:50:18.442Z,25.10
2019-05-16T00:52:48.697Z,34.43
2019-05-16T00:55:18.413Z,28.07
2019-05-16T00:57:49.251Z,26.67
2019-05-16T01:00:29.163Z,34.80
2019-05-16T01:02:58.412Z,32.63
2019-05-16T01:05:28.439Z,42.90
2019-05-16T01:07:58.478Z,39.67
2019-05-16T01:10:29.551Z,22.00
2019-05-16T01:12:58.713Z,19.23
2019-05-16T01:15:28.781Z,18.00
2019-05-16T01:17:58.851Z,14.93
2019-05-16T01:20:28.330Z,15.47
2019-05-16T01:22:58.147Z,31.03
2019-05-16T01:25:28.251Z,32.40
2019-05-16T01:27:58.277Z,28.43
2019-05-16T01:30:28.651Z,23.97
2019-05-16T01:32:58.341Z,17.03
2019-05-16T01:35:27.968Z,17.47
2019-05-16T01:37:58.089Z,11.70
2019-05-16T01:40:28.111Z,14.97
2019-05-16T01:42:57.855Z,16.27
2019-05-16T01:45:27.810Z,17.80
2019-05-16T01:47:58.731Z,16.77
2019-05-16T01:50:28.396Z,16.77
2019-05-16T01:52:57.959Z,18.57
2019-05-16T01:55:28.554Z,15.43
2019-05-16T01:57:58.457Z,18.10
2019-05-16T02:00:35.681Z,20.53
2019-05-16T02:02:58.825Z,19.37
2019-05-16T02:05:28.098Z,121.77
2019-05-16T02:07:58.398Z,34.20
2019-05-16T02:10:28.444Z,38.87
2019-05-16T02:12:58.183Z,28.43
2019-05-16T02:15:28.614Z,18.00
2019-05-16T02:17:58.726Z,17.23
2019-05-16T02:20:28.341Z,17.03
2019-05-16T02:22:58.534Z,19.10
2019-05-16T02:25:28.110Z,21.90
2019-05-16T02:27:58.971Z,19.67
2019-05-16T02:30:31.266Z,20.20
2019-05-16T02:33:01.046Z,20.93
2019-05-16T02:35:31.186Z,18.67
2019-05-16T02:38:01.178Z,18.80
2019-05-16T02:40:31.421Z,18.23
2019-05-16T02:43:01.921Z,17.30
2019-05-16T02:45:32.575Z,18.63
2019-05-16T02:48:02.228Z,24.67
2019-05-16T02:50:31.967Z,22.50
2019-05-16T02:53:01.749Z,17.87
2019-05-16T02:55:31.155Z,17.73
2019-05-16T02:58:01.123Z,20.30
2019-05-16T03:00:35.779Z,15.63
2019-05-16T03:03:06.517Z,19.67
2019-05-16T03:05:35.861Z,17.20
2019-05-16T03:08:05.732Z,19.90
2019-05-16T03:10:35.739Z,15.17
2019-05-16T03:13:04.995Z,16.93
2019-05-16T03:15:34.331Z,18.27
2019-05-16T03:18:04.581Z,17.83
2019-05-16T03:20:35.106Z,22.10
2019-05-16T03:23:04.394Z,20.03
2019-05-16T03:25:33.715Z,19.83
2019-05-16T03:28:03.022Z,33.23
2019-05-16T03:30:35.079Z,18.87
2019-05-16T03:33:05.860Z,14.90
2019-05-16T03:35:35.377Z,47.03
2019-05-16T03:38:05.768Z,51.53
2019-05-16T03:40:37.630Z,25.53
2019-05-16T03:43:06.878Z,18.87
2019-05-16T03:45:36.144Z,21.93
2019-05-16T03:48:05.470Z,32.60
2019-05-16T03:50:34.717Z,22.43
2019-05-16T03:53:04.085Z,21.97
2019-05-16T03:55:33.370Z,48.27
2019-05-16T03:58:02.599Z,30.47
2019-05-16T04:00:55.232Z,14.03
2019-05-16T04:03:28.409Z,17.27
2019-05-16T04:05:55.819Z,13.60
2019-05-16T04:08:25.825Z,36.10
2019-05-16T04:10:55.296Z,41.97
2019-05-16T04:13:24.524Z,50.03
2019-05-16T04:15:53.766Z,17.00
2019-05-16T04:18:23.115Z,25.37
2019-05-16T04:20:53.051Z,22.70
2019-05-16T04:23:22.491Z,20.30
2019-05-16T04:25:52.629Z,8.97
2019-05-16T04:28:23.032Z,9.93
2019-05-16T04:30:52.676Z,8.40
2019-05-16T04:33:22.582Z,6.73
2019-05-16T04:35:53.081Z,5.73
2019-05-16T04:38:34.957Z,6.93
2019-05-16T04:40:53.860Z,8.30
2019-05-16T04:43:23.176Z,12.83
2019-05-16T04:45:52.988Z,6.37
2019-05-16T04:48:23.121Z,36.40
2019-05-16T04:50:52.804Z,36.50
2019-05-16T04:53:22.404Z,20.27
2019-05-16T04:55:52.349Z,20.87
2019-05-16T04:58:23.692Z,27.37
2019-05-16T05:00:53.020Z,28.63
2019-05-16T05:03:22.563Z,20.77
2019-05-16T05:05:52.142Z,38.97
2019-05-16T05:08:22.463Z,25.73
2019-05-16T05:10:52.305Z,23.27
2019-05-16T05:13:22.635Z,35.17
2019-05-16T05:15:52.157Z,12.87
2019-05-16T05:18:21.807Z,13.27
2019-05-16T05:20:52.765Z,9.70
2019-05-16T05:23:22.310Z,26.03
2019-05-16T05:25:51.846Z,26.20
2019-05-16T05:28:21.561Z,90.43
2019-05-16T05:30:51.010Z,26.57
2019-05-16T05:33:21.368Z,13.17
2019-05-16T05:35:51.168Z,9.53
2019-05-16T05:38:21.570Z,12.23
2019-05-16T05:40:51.695Z,17.97
2019-05-16T05:43:21.863Z,21.23
2019-05-16T05:45:51.750Z,12.80
2019-05-16T05:48:21.834Z,12.77
2019-05-16T05:50:51.685Z,15.30
2019-05-16T05:53:21.238Z,13.27
2019-05-16T05:55:51.506Z,10.50
2019-05-16T05:58:21.430Z,17.80
2019-05-16T06:00:52.553Z,16.40
2019-05-16T06:03:23.035Z,13.33
2019-05-16T06:05:52.565Z,16.77
2019-05-16T06:08:21.800Z,12.10
2019-05-16T06:10:51.027Z,12.47
2019-05-16T06:13:20.944Z,10.93
2019-05-16T06:15:51.224Z,8.17
2019-05-16T06:18:20.797Z,9.50
2019-05-16T06:20:51.198Z,9.50
2019-05-16T06:23:21.153Z,8.20
2019-05-16T06:25:51.153Z,8.67
2019-05-16T06:28:21.229Z,10.90
2019-05-16T06:30:51.376Z,11.63
2019-05-16T06:33:21.393Z,11.33
2019-05-16T06:35:51.322Z,14.10
2019-05-16T06:38:21.404Z,14.97
2019-05-16T06:40:52.631Z,14.73
2019-05-16T06:43:21.867Z,18.97
2019-05-16T06:45:51.622Z,18.53
2019-05-16T06:48:21.623Z,16.10
2019-05-16T06:50:51.726Z,16.93
2019-05-16T06:53:21.314Z,18.03
2019-05-16T06:55:50.825Z,17.43
2019-05-16T06:58:22.279Z,17.13
2019-05-16T07:00:52.128Z,17.43
2019-05-16T07:03:22.014Z,16.73
2019-05-16T07:05:51.283Z,19.57
2019-05-16T07:08:21.046Z,20.17
2019-05-16T07:10:50.987Z,16.87
2019-05-16T07:13:20.425Z,17.43
2019-05-16T07:15:50.353Z,16.47
2019-05-16T07:18:20.998Z,15.17
2019-05-16T07:20:51.325Z,13.97
2019-05-16T07:23:21.275Z,15.60
2019-05-16T07:25:50.969Z,17.77
2019-05-16T07:28:21.046Z,14.20
2019-05-16T07:30:50.575Z,15.03
2019-05-16T07:33:21.165Z,21.17
2019-05-16T07:35:51.477Z,21.80
2019-05-16T07:38:21.000Z,25.80
2019-05-16T07:40:51.166Z,14.50
2019-05-16T07:43:20.976Z,16.90
2019-05-16T07:45:51.628Z,14.50
2019-05-16T07:48:21.938Z,19.80
2019-05-16T07:50:51.781Z,18.70
2019-05-16T07:53:21.645Z,13.17
2019-05-16T07:55:51.297Z,16.57
2019-05-16T07:58:21.760Z,17.67
2019-05-16T08:01:01.895Z,16.33
2019-05-16T08:03:22.318Z,13.50
2019-05-16T08:05:51.830Z,17.57
2019-05-16T08:08:24.356Z,14.03
2019-05-16T08:10:52.239Z,13.47
2019-05-16T08:13:21.512Z,25.30
2019-05-16T08:15:51.107Z,46.53
2019-05-16T08:18:21.605Z,14.27
2019-05-16T08:20:52.597Z,16.23
2019-05-16T08:23:22.802Z,18.77
2019-05-16T08:25:52.396Z,15.20
2019-05-16T08:28:22.098Z,12.47
2019-05-16T08:30:53.096Z,13.93
2019-05-16T08:33:22.774Z,12.30
2019-05-16T08:35:52.078Z,45.10
2019-05-16T08:38:21.925Z,18.47
2019-05-16T08:41:10.552Z,16.73
2019-05-16T08:43:22.318Z,19.37
2019-05-16T08:45:52.061Z,19.83
2019-05-16T08:48:23.390Z,14.37
2019-05-16T08:50:54.747Z,91.90
2019-05-16T08:53:23.689Z,26.23
2019-05-16T08:55:52.918Z,20.97
2019-05-16T08:58:23.643Z,18.00
2019-05-16T09:00:56.026Z,16.43
2019-05-16T09:03:23.832Z,24.90
2019-05-16T09:05:53.762Z,26.70
2019-05-16T09:08:23.209Z,16.83
2019-05-16T09:11:01.768Z,11.60
2019-05-16T09:13:23.434Z,13.50
2019-05-16T09:15:52.746Z,12.20
2019-05-16T09:18:21.981Z,13.43
2019-05-16T09:20:51.322Z,13.43
2019-05-16T09:23:20.641Z,10.93
2019-05-16T09:25:49.953Z,12.47
2019-05-16T09:28:19.193Z,9.70
2019-05-16T09:30:48.429Z,8.50
2019-05-16T09:33:17.961Z,11.23
2019-05-16T09:35:47.874Z,12.83
2019-05-16T09:38:22.895Z,9.30
2019-05-16T09:40:48.376Z,13.97
2019-05-16T09:43:18.178Z,12.73
2019-05-16T09:45:47.675Z,19.77
2019-05-16T09:48:18.851Z,15.47
2019-05-16T09:50:48.064Z,30.17
2019-05-16T09:53:17.473Z,12.87
2019-05-16T09:55:47.329Z,14.80
2019-05-16T09:58:18.270Z,17.27
2019-05-16T10:00:48.084Z,12.73
2019-05-16T10:03:21.927Z,22.37
2019-05-16T10:05:48.446Z,9.03
2019-05-16T10:08:17.696Z,6.23
2019-05-16T10:10:46.996Z,6.83
2019-05-16T10:13:18.291Z,5.67
2019-05-16T10:15:47.508Z,6.27
2019-05-16T10:18:17.143Z,8.23
2019-05-16T10:20:46.600Z,6.73
2019-05-16T10:23:18.102Z,7.93
2019-05-16T10:25:48.077Z,7.97
2019-05-16T10:28:20.006Z,5.57
2019-05-16T10:30:50.076Z,8.73
2019-05-16T10:33:19.644Z,8.53
2019-05-16T10:35:48.946Z,7.33
2019-05-16T10:38:18.417Z,7.53
2019-05-16T10:40:47.823Z,5.90
2019-05-16T10:43:17.405Z,6.43
2019-05-16T10:45:47.033Z,23.43
2019-05-16T10:48:17.594Z,10.73
2019-05-16T10:50:47.812Z,6.67
2019-05-16T10:53:33.618Z,8.77
2019-05-16T10:55:48.499Z,7.37
2019-05-16T10:58:34.943Z,6.67
2019-05-16T11:01:11.016Z,6.60
2019-05-16T11:03:19.807Z,8.67
2019-05-16T11:06:02.893Z,7.43
2019-05-16T11:08:19.956Z,7.33
2019-05-16T11:10:49.357Z,7.27
2019-05-16T11:13:20.260Z,6.60
2019-05-16T11:15:49.566Z,8.33
2019-05-16T11:18:19.153Z,9.27
2019-05-16T11:20:49.417Z,6.77
2019-05-16T11:23:23.181Z,8.70
2019-05-16T11:25:50.370Z,7.83
2019-05-16T11:28:19.669Z,18.97
2019-05-16T11:30:49.989Z,8.73
2019-05-16T11:33:19.535Z,8.33
2019-05-16T11:35:48.762Z,8.30
2019-05-16T11:38:18.102Z,9.70
2019-05-16T11:40:47.803Z,12.00
2019-05-16T11:43:21.050Z,7.47
2019-05-16T11:45:48.203Z,10.73
2019-05-16T11:48:17.490Z,6.87
2019-05-16T11:50:48.018Z,8.10
2019-05-16T11:53:17.742Z,6.50
2019-05-16T11:55:55.183Z,8.53
2019-05-16T11:58:18.373Z,5.80
2019-05-16T12:00:48.394Z,7.77
2019-05-16T12:03:17.984Z,8.83
2019-05-16T12:05:48.047Z,7.97
2019-05-16T12:08:18.273Z,7.67
2019-05-16T12:10:47.518Z,7.87
2019-05-16T12:13:27.482Z,10.30
2019-05-16T12:15:47.754Z,6.87
2019-05-16T12:18:17.472Z,6.47
2019-05-16T12:20:46.890Z,10.13
2019-05-16T12:23:17.191Z,11.60
2019-05-16T12:25:47.562Z,12.47
2019-05-16T12:28:17.209Z,11.37
2019-05-16T12:30:47.264Z,10.13
2019-05-16T12:33:18.769Z,10.33
2019-05-16T12:35:47.703Z,8.80
2019-05-16T12:38:17.369Z,8.03
2019-05-16T12:40:47.856Z,8.87
2019-05-16T12:43:18.031Z,9.97
2019-05-16T12:45:47.571Z,14.37
2019-05-16T12:48:20.211Z,9.60
2019-05-16T12:50:48.309Z,9.00
2019-05-16T12:53:18.118Z,8.13
2019-05-16T12:55:47.758Z,10.43
2019-05-16T12:58:24.955Z,10.07
2019-05-16T13:00:54.191Z,9.03
2019-05-16T13:03:19.291Z,9.80
2019-05-16T13:05:48.533Z,8.90
2019-05-16T13:08:17.791Z,10.83
2019-05-16T13:10:47.334Z,10.53
2019-05-16T13:13:17.645Z,11.30
2019-05-16T13:15:47.768Z,10.93
2019-05-16T13:18:17.290Z,10.03
2019-05-16T13:20:46.951Z,13.13
2019-05-16T13:23:18.174Z,11.80
2019-05-16T13:25:48.078Z,9.97
2019-05-16T13:28:18.054Z,11.80
2019-05-16T13:30:47.412Z,13.33
2019-05-16T13:33:17.803Z,14.10
2019-05-16T13:35:47.417Z,16.30
2019-05-16T13:38:17.614Z,12.13
2019-05-16T13:40:47.060Z,13.07
2019-05-16T13:43:17.463Z,14.60
2019-05-16T13:45:47.495Z,11.40
2019-05-16T13:48:17.339Z,13.40
2019-05-16T13:50:47.365Z,11.53
2019-05-16T13:53:16.981Z,13.90
2019-05-16T13:55:46.307Z,11.23
2019-05-16T13:58:17.889Z,16.97
2019-05-16T14:00:48.081Z,14.70
2019-05-16T14:03:18.077Z,15.43
2019-05-16T14:05:47.931Z,17.43
2019-05-16T14:08:17.433Z,23.10
2019-05-16T14:10:48.842Z,16.93
2019-05-16T14:13:17.763Z,24.70
2019-05-16T14:15:47.479Z,19.20
2019-05-16T14:18:17.633Z,12.03
2019-05-16T14:20:47.309Z,11.00
2019-05-16T14:23:17.653Z,10.60
2019-05-16T14:25:48.345Z,10.70
2019-05-16T14:28:17.920Z,11.60
2019-05-16T14:30:47.275Z,10.70
2019-05-16T14:33:17.185Z,13.00
2019-05-16T14:35:47.386Z,16.23
2019-05-16T14:38:17.632Z,16.80
2019-05-16T14:40:50.149Z,12.73
2019-05-16T14:43:18.023Z,10.43
2019-05-16T14:45:47.316Z,13.90
2019-05-16T14:48:18.390Z,12.37
2019-05-16T14:50:47.503Z,16.87
2019-05-16T14:53:17.932Z,11.67
2019-05-16T14:55:47.832Z,8.37
2019-05-16T14:58:17.263Z,13.23
2019-05-16T15:00:48.945Z,10.60
2019-05-16T15:03:18.111Z,9.57
2019-05-16T15:05:48.182Z,10.70
2019-05-16T15:08:18.232Z,12.43
2019-05-16T15:10:47.697Z,7.93
2019-05-16T15:13:17.549Z,8.53
2019-05-16T15:15:47.102Z,7.50
2019-05-16T15:18:17.653Z,12.23
2019-05-16T15:20:47.377Z,9.07
2019-05-16T15:23:17.598Z,9.33
2019-05-16T15:25:47.271Z,11.17
2019-05-16T15:28:17.281Z,13.93
2019-05-16T15:30:47.112Z,11.57
2019-05-16T15:33:19.709Z,10.53
2019-05-16T15:35:47.400Z,8.03
2019-05-16T15:38:16.879Z,10.90
2019-05-16T15:40:48.174Z,12.07
2019-05-16T15:43:18.531Z,7.77
2019-05-16T15:45:52.154Z,9.03
2019-05-16T15:48:19.014Z,7.77
2019-05-16T15:50:48.339Z,10.30
2019-05-16T15:53:17.769Z,9.50
2019-05-16T15:55:47.256Z,8.03
2019-05-16T15:58:18.123Z,7.80
2019-05-16T16:00:49.608Z,11.07
2019-05-16T16:03:19.148Z,9.87
2019-05-16T16:05:48.679Z,11.83
2019-05-16T16:08:18.583Z,10.83
2019-05-16T16:10:48.162Z,13.50
2019-05-16T16:13:19.982Z,13.17
2019-05-16T16:15:54.096Z,18.57
2019-05-16T16:18:21.721Z,12.43
2019-05-16T16:20:50.389Z,13.47
2019-05-16T16:23:19.739Z,14.00
2019-05-16T16:25:51.046Z,15.67
2019-05-16T16:28:19.943Z,12.67
2019-05-16T16:30:49.235Z,18.03
2019-05-16T16:33:25.301Z,18.27
2019-05-16T16:35:49.468Z,17.43
2019-05-16T16:38:18.721Z,16.83
2019-05-16T16:40:48.156Z,16.43
2019-05-16T16:43:17.570Z,17.80
2019-05-16T16:45:47.984Z,20.03
2019-05-16T16:48:17.595Z,22.40
2019-05-16T16:50:46.927Z,18.20
2019-05-16T16:53:17.658Z,12.97
2019-05-16T16:55:47.581Z,38.20
2019-05-16T16:58:17.703Z,12.13
2019-05-16T17:00:47.810Z,14.80
2019-05-16T17:03:17.873Z,18.13
2019-05-16T17:05:47.214Z,21.40
2019-05-16T17:08:16.958Z,25.33
2019-05-16T17:10:47.696Z,27.87
2019-05-16T17:13:17.144Z,27.80
2019-05-16T17:15:47.376Z,30.27
2019-05-16T17:18:17.457Z,37.53
2019-05-16T17:20:47.854Z,38.80
2019-05-16T17:23:17.525Z,38.77
2019-05-16T17:25:47.267Z,101.00
2019-05-16T17:28:17.430Z,62.93
2019-05-16T17:30:47.168Z,32.47
2019-05-16T17:33:18.312Z,34.27
2019-05-16T17:35:48.855Z,29.93
2019-05-16T17:38:18.408Z,22.47
2019-05-16T17:40:47.735Z,22.60
2019-05-16T17:43:17.058Z,24.63
2019-05-16T17:45:47.190Z,34.13
2019-05-16T17:48:17.722Z,29.90
2019-05-16T17:50:47.532Z,32.80
2019-05-16T17:53:17.522Z,32.27
2019-05-16T17:55:47.315Z,32.97
2019-05-16T17:58:17.787Z,28.30
2019-05-16T18:00:47.457Z,25.57
2019-05-16T18:03:17.533Z,22.50
2019-05-16T18:05:47.666Z,22.13
2019-05-16T18:08:17.324Z,22.37
2019-05-16T18:10:47.131Z,25.90
2019-05-16T18:13:16.782Z,25.23
2019-05-16T18:15:47.284Z,23.67
2019-05-16T18:18:17.691Z,26.33
2019-05-16T18:20:55.791Z,27.97
2019-05-16T18:23:18.352Z,39.70
2019-05-16T18:25:47.633Z,49.33
2019-05-16T18:28:17.540Z,48.00
2019-05-16T18:30:47.412Z,48.13
2019-05-16T18:33:16.849Z,45.53
2019-05-16T18:35:46.740Z,47.23
2019-05-16T18:38:16.225Z,41.37
2019-05-16T18:40:47.391Z,40.97
2019-05-16T18:43:16.734Z,54.43
2019-05-16T18:45:47.186Z,42.80
2019-05-16T18:48:16.654Z,49.77
2019-05-16T18:50:47.739Z,42.63
2019-05-16T18:53:17.847Z,45.80
2019-05-16T18:55:47.300Z,45.07
2019-05-16T18:58:17.939Z,43.57
2019-05-16T19:00:47.815Z,45.53
2019-05-16T19:03:17.089Z,40.97
2019-05-16T19:05:46.474Z,40.00
2019-05-16T19:08:16.367Z,41.13
2019-05-16T19:10:47.342Z,43.70
2019-05-16T19:13:16.899Z,27.13
2019-05-16T19:15:49.224Z,33.87
2019-05-16T19:18:17.699Z,28.13
2019-05-16T19:20:48.945Z,40.70
2019-05-16T19:23:18.017Z,29.87
2019-05-16T19:25:47.489Z,26.80
2019-05-16T19:28:16.847Z,26.83
2019-05-16T19:30:46.620Z,21.43
2019-05-16T19:33:17.541Z,28.60
2019-05-16T19:35:48.944Z,29.70
2019-05-16T19:38:18.183Z,31.13
2019-05-16T19:40:47.495Z,80.33
2019-05-16T19:43:17.489Z,40.10
2019-05-16T19:45:46.848Z,38.23
2019-05-16T19:48:17.474Z,37.43
2019-05-16T19:50:46.958Z,40.27
2019-05-16T19:53:16.586Z,35.20
2019-05-16T19:55:46.999Z,33.83
2019-05-16T19:58:16.601Z,35.47
2019-05-16T20:00:46.477Z,31.97
2019-05-16T20:03:16.663Z,38.17
2019-05-16T20:05:47.561Z,32.70
2019-05-16T20:08:17.606Z,33.07
2019-05-16T20:10:47.691Z,30.03
2019-05-16T20:13:17.126Z,61.33
2019-05-16T20:15:47.109Z,52.63
2019-05-16T20:18:18.527Z,39.47
2019-05-16T20:20:47.647Z,46.17
2019-05-16T20:23:18.758Z,36.97
2019-05-16T20:25:47.834Z,40.27
2019-05-16T20:28:18.474Z,39.97
2019-05-16T20:30:48.468Z,42.03
2019-05-16T20:33:18.195Z,44.57
2019-05-16T20:35:47.509Z,44.53
2019-05-16T20:38:17.330Z,42.57
2019-05-16T20:40:46.776Z,42.17
2019-05-16T20:43:16.859Z,43.73
2019-05-16T20:45:47.717Z,53.87
2019-05-16T20:48:18.610Z,59.50
2019-05-16T20:50:49.203Z,48.90
2019-05-16T20:53:18.859Z,43.53
2019-05-16T20:55:49.677Z,43.17
2019-05-16T20:58:19.278Z,50.17
2019-05-16T21:00:49.837Z,48.83
2019-05-16T21:03:20.050Z,42.53
2019-05-16T21:05:49.390Z,45.47
2019-05-16T21:08:18.707Z,48.00
2019-05-16T21:10:48.060Z,42.77
2019-05-16T21:13:17.411Z,39.30
2019-05-16T21:15:47.676Z,41.23
2019-05-16T21:18:17.015Z,39.63
2019-05-16T21:20:47.003Z,36.70
2019-05-16T21:23:19.385Z,36.03
2019-05-16T21:25:47.492Z,39.20
2019-05-16T21:28:19.850Z,37.77
2019-05-16T21:30:47.746Z,40.43
2019-05-16T21:33:18.619Z,41.50
2019-05-16T21:35:48.092Z,44.27
2019-05-16T21:38:17.806Z,44.70
2019-05-16T21:40:47.054Z,43.67
2019-05-16T21:43:16.878Z,44.27
2019-05-16T21:45:47.452Z,41.60
2019-05-16T21:48:19.334Z,45.10
2019-05-16T21:50:47.739Z,46.00
2019-05-16T21:53:17.713Z,45.27
2019-05-16T21:55:47.319Z,48.27
2019-05-16T21:58:16.703Z,46.90
2019-05-16T22:00:48.962Z,52.13
2019-05-16T22:03:18.513Z,47.77
2019-05-16T22:05:47.934Z,51.23
2019-05-16T22:08:17.294Z,44.00
2019-05-16T22:10:47.111Z,49.67
2019-05-16T22:13:16.439Z,50.27
2019-05-16T22:15:46.401Z,50.27
2019-05-16T22:18:16.560Z,48.03
2019-05-16T22:20:48.861Z,48.80
2019-05-16T22:23:17.468Z,53.30
2019-05-16T22:25:49.167Z,54.33
2019-05-16T22:28:17.837Z,56.57
2019-05-16T22:30:47.193Z,62.10
2019-05-16T22:33:17.898Z,56.83
2019-05-16T22:35:49.510Z,60.83
2019-05-16T22:38:18.324Z,68.30
2019-05-16T22:40:47.638Z,70.97
2019-05-16T22:43:17.396Z,70.83
2019-05-16T22:45:47.449Z,69.53
2019-05-16T22:48:17.312Z,75.43
2019-05-16T22:50:46.867Z,72.27
2019-05-16T22:53:17.243Z,81.00
2019-05-16T22:55:47.752Z,80.80
2019-05-16T22:58:17.246Z,79.40
2019-05-16T23:00:47.318Z,84.57
2019-05-16T23:03:17.357Z,81.47
2019-05-16T23:05:47.395Z,85.70
2019-05-16T23:08:16.956Z,84.87
2019-05-16T23:10:46.258Z,100.10
2019-05-16T23:13:16.948Z,100.17
2019-05-16T23:15:46.411Z,89.23
2019-05-16T23:18:17.220Z,109.13
2019-05-16T23:20:47.508Z,98.07
2019-05-16T23:23:17.377Z,102.17
2019-05-16T23:25:46.809Z,118.83
2019-05-16T23:28:16.728Z,102.30
2019-05-16T23:30:47.095Z,114.90
2019-05-16T23:33:16.539Z,105.10
2019-05-16T23:35:46.866Z,122.83
2019-05-16T23:38:19.831Z,141.07
2019-05-16T23:40:47.514Z,109.30
2019-05-16T23:43:16.756Z,141.53
2019-05-16T23:45:46.962Z,98.10
2019-05-16T23:48:16.526Z,127.70
2019-05-16T23:50:47.510Z,126.77
2019-05-16T23:53:16.894Z,118.80
2019-05-16T23:55:47.121Z,101.80
2019-05-16T23:58:16.660Z,93.00
